Alpharetta, Georgia
Current Conditions -  °F | °C
As of 10:53 AM on Saturday 22 Nov 2014 (Local Time) from KPDK Reporting Station
Clear Clear  
Wind Chill: 50°   Ceiling: Unl
Heat Index: 50°   Visibility: 10mi
Dew Point: 23°   Wind: 7mph
Humidity: 35%   Direction: NA
Pressure: 30.46"   Gusts: NA
Location:  34.08°N, 84.29°W
Report Text: KPDK 221553Z VRB06KT 10SM CLR 10/M05 A3046 RMK AO2 SLP325 T01001050
Loading
Personal Weather Stations






























Interactive Weather Map New forecast layout! Learn more

10-Day Weather Forecast

Advertisements
Track Severe Weather on mobile